Ayr Alva Beach, Queensland

3:53 AM AEST on October 21, 2014 (GMT +1000)
On The Edge of The sugar cane in Ayr, Qld | Change Station
CLOSE
Current Station
Personal Weather Station
Location: Ayr, QLD
Elevation: 39 ft
Nearby Weather Stations

Elev 39 ft 19.58 °S, 147.42 °E | Updated 3 seconds ago

Mostly Cloudy
Mostly Cloudy
66.7 °F
Feels Like 66.7 °F
N
5.0
Wind Variable Wind from SW
Gusts 7.0 mph

Today
High -- | Low -- °F
--% Chance of Precip.
Yesterday
High -- | Low -- °F
Precip. -- in
5:36 AM 6:13 PM
Waning Crescent, 10% visible
Pressure 30.06 in
Visibility 6.2 miles
Clouds Mostly Cloudy 4800 ft
Mostly Cloudy 6200 ft
Dew Point 62 °F
Humidity 85%
Rainfall 0.00 in
Snow Depth Not available.
UV 0 out of 12
Pollen Not available.
Air Quality Not available.
Flu Activity Not available.
METAR YBTL 201730Z AUTO 15007KT 9999 // BKN048 BKN062 22/16 Q1018

More Conditions Fewer Conditions

Pressure 30.06 in
Visibility 6.2 miles
Clouds Mostly Cloudy 4800 ft
Mostly Cloudy 6200 ft
Dew Point 62 °F
Humidity 85%
Rainfall 0.00 in
Snow Depth Not available.
UV 0 out of 12
Pollen Not available.
Air Quality Not available.
Flu Activity Not available.
METAR YBTL 201730Z AUTO 15007KT 9999 // BKN048 BKN062 22/16 Q1018

More Conditions Fewer Conditions

10-Day Weather Forecast

Almanac

Astronomy

Oct. 21, 2014 Rise Set
Actual Time 5:36 AM AEST 6:13 PM AEST
Civil Twilight 5:13 AM AEST 6:36 PM AEST
Nautical Twilight 4:47 AM AEST 7:02 PM AEST
Astronomical Twilight 4:20 AM AEST 7:29 PM AEST
Moon 3:39 AM AEST (10/21) 3:59 PM AEST (10/21)
Length of Visible Light 13h 22m
Length of Day
12h 37m
Tomorrow will be 1m 4s longer.
Waning Crescent, 10% of the Moon is Illuminated
Oct 20
Waning Crescent
Oct 23
New
Oct 30
First Quarter
Nov 6
Full
Nov 14
Last Quarter

Yesterday's Extremes

Country Highs Country Lows

Community

WunderPhotos

Upload Photos

1,763,446 photos uploaded!

WunderBlogs® & News

Nearby

Snow Depth

Not available.

Earthquake Activity

City Distance Mag. Time & Date
No recent earthquake activity has been reported nearby.
Minimum magnitude displayed is 2.5.

Coastal Water Temperatures

Place Temperature
No Stations Reporting

Nearby Weather Stations